sensor_id;sensor_type;location;lat;lon;timestamp;P1;durP1;ratioP1;P2;durP2;ratioP2
52962;SDS011;38827;53.024;6.596;2023-02-11T00:00:46;25.20;;;6.25;;
52962;SDS011;38827;53.024;6.596;2023-02-11T00:03:15;28.10;;;6.47;;
52962;SDS011;38827;53.024;6.596;2023-02-11T00:09:12;21.02;;;6.47;;
52962;SDS011;38827;53.024;6.596;2023-02-11T00:11:40;23.83;;;5.75;;
52962;SDS011;38827;53.024;6.596;2023-02-11T00:27:09;24.42;;;6.50;;
52962;SDS011;38827;53.024;6.596;2023-02-11T00:44:25;24.85;;;6.50;;
52962;SDS011;38827;53.024;6.596;2023-02-11T00:47:06;28.42;;;6.72;;
52962;SDS011;38827;53.024;6.596;2023-02-11T01:12:25;21.48;;;7.35;;
52962;SDS011;38827;53.024;6.596;2023-02-11T01:14:57;23.30;;;7.30;;
52962;SDS011;38827;53.024;6.596;2023-02-11T02:06:42;24.83;;;7.75;;
52962;SDS011;38827;53.024;6.596;2023-02-11T02:09:39;38.53;;;8.35;;
52962;SDS011;38827;53.024;6.596;2023-02-11T02:12:38;29.33;;;7.50;;
52962;SDS011;38827;53.024;6.596;2023-02-11T02:42:08;32.80;;;10.18;;
52962;SDS011;38827;53.024;6.596;2023-02-11T03:06:04;29.77;;;13.20;;
52962;SDS011;38827;53.024;6.596;2023-02-11T03:12:41;32.22;;;13.20;;
52962;SDS011;38827;53.024;6.596;2023-02-11T03:32:08;32.63;;;13.93;;
52962;SDS011;38827;53.024;6.596;2023-02-11T03:49:48;37.55;;;15.65;;
52962;SDS011;38827;53.024;6.596;2023-02-11T03:53:06;36.70;;;15.13;;
52962;SDS011;38827;53.024;6.596;2023-02-11T04:03:50;31.35;;;15.13;;
52962;SDS011;38827;53.024;6.596;2023-02-11T04:46:17;39.13;;;17.98;;
52962;SDS011;38827;53.024;6.596;2023-02-11T04:54:53;34.75;;;17.23;;
52962;SDS011;38827;53.024;6.596;2023-02-11T05:00:21;35.47;;;17.25;;
52962;SDS011;38827;53.024;6.596;2023-02-11T05:03:05;42.47;;;19.30;;
52962;SDS011;38827;53.024;6.596;2023-02-11T05:11:35;42.85;;;17.75;;
52962;SDS011;38827;53.024;6.596;2023-02-11T05:14:12;36.58;;;18.15;;
52962;SDS011;38827;53.024;6.596;2023-02-11T05:23:34;37.33;;;18.13;;
52962;SDS011;38827;53.024;6.596;2023-02-11T05:29:58;34.88;;;17.50;;
52962;SDS011;38827;53.024;6.596;2023-02-11T06:02:55;43.28;;;19.85;;
52962;SDS011;38827;53.024;6.596;2023-02-11T06:16:04;41.20;;;20.10;;
52962;SDS011;38827;53.024;6.596;2023-02-11T06:24:22;44.20;;;20.02;;
52962;SDS011;38827;53.024;6.596;2023-02-11T06:36:53;45.05;;;19.27;;
52962;SDS011;38827;53.024;6.596;2023-02-11T06:39:34;42.78;;;20.38;;
52962;SDS011;38827;53.024;6.596;2023-02-11T06:45:39;50.42;;;21.25;;
52962;SDS011;38827;53.024;6.596;2023-02-11T06:48:10;47.72;;;21.70;;
52962;SDS011;38827;53.024;6.596;2023-02-11T06:57:37;49.10;;;21.90;;
52962;SDS011;38827;53.024;6.596;2023-02-11T07:00:09;43.58;;;21.48;;
52962;SDS011;38827;53.024;6.596;2023-02-11T07:02:39;50.67;;;23.38;;
52962;SDS011;38827;53.024;6.596;2023-02-11T07:09:06;44.30;;;22.20;;
52962;SDS011;38827;53.024;6.596;2023-02-11T07:11:47;52.05;;;23.25;;
52962;SDS011;38827;53.024;6.596;2023-02-11T07:14:46;49.47;;;23.05;;
52962;SDS011;38827;53.024;6.596;2023-02-11T07:23:59;49.25;;;23.67;;
52962;SDS011;38827;53.024;6.596;2023-02-11T07:26:25;50.97;;;23.60;;
52962;SDS011;38827;53.024;6.596;2023-02-11T07:28:51;48.53;;;23.77;;
52962;SDS011;38827;53.024;6.596;2023-02-11T07:34:39;42.13;;;21.90;;
52962;SDS011;38827;53.024;6.596;2023-02-11T07:37:05;50.42;;;23.38;;
52962;SDS011;38827;53.024;6.596;2023-02-11T07:39:30;46.72;;;22.67;;
52962;SDS011;38827;53.024;6.596;2023-02-11T07:41:56;46.60;;;22.35;;
52962;SDS011;38827;53.024;6.596;2023-02-11T07:44:22;47.58;;;24.60;;
52962;SDS011;38827;53.024;6.596;2023-02-11T07:46:51;53.05;;;24.35;;
52962;SDS011;38827;53.024;6.596;2023-02-11T07:49:19;45.83;;;23.08;;
52962;SDS011;38827;53.024;6.596;2023-02-11T07:51:47;48.28;;;24.63;;
52962;SDS011;38827;53.024;6.596;2023-02-11T07:54:15;43.10;;;21.95;;
52962;SDS011;38827;53.024;6.596;2023-02-11T07:56:43;48.90;;;24.07;;
52962;SDS011;38827;53.024;6.596;2023-02-11T07:59:29;42.92;;;22.02;;
52962;SDS011;38827;53.024;6.596;2023-02-11T08:04:48;47.42;;;21.65;;
52962;SDS011;38827;53.024;6.596;2023-02-11T08:07:15;41.25;;;21.15;;
52962;SDS011;38827;53.024;6.596;2023-02-11T08:09:45;47.50;;;21.67;;
52962;SDS011;38827;53.024;6.596;2023-02-11T08:12:11;46.00;;;21.75;;
52962;SDS011;38827;53.024;6.596;2023-02-11T08:14:39;39.83;;;21.10;;
52962;SDS011;38827;53.024;6.596;2023-02-11T08:20:14;44.45;;;22.55;;
52962;SDS011;38827;53.024;6.596;2023-02-11T08:23:02;48.78;;;22.60;;
52962;SDS011;38827;53.024;6.596;2023-02-11T08:26:38;37.25;;;20.70;;
52962;SDS011;38827;53.024;6.596;2023-02-11T08:32:03;35.92;;;19.40;;
52962;SDS011;38827;53.024;6.596;2023-02-11T08:38:33;35.38;;;19.05;;
52962;SDS011;38827;53.024;6.596;2023-02-11T08:41:10;40.90;;;21.10;;
52962;SDS011;38827;53.024;6.596;2023-02-11T09:16:12;31.80;;;18.70;;
52962;SDS011;38827;53.024;6.596;2023-02-11T09:18:42;34.65;;;18.73;;
52962;SDS011;38827;53.024;6.596;2023-02-11T09:23:35;31.70;;;17.17;;
52962;SDS011;38827;53.024;6.596;2023-02-11T09:26:06;32.50;;;18.40;;
52962;SDS011;38827;53.024;6.596;2023-02-11T09:28:33;35.45;;;17.02;;
52962;SDS011;38827;53.024;6.596;2023-02-11T09:31:03;32.70;;;17.00;;
52962;SDS011;38827;53.024;6.596;2023-02-11T09:33:34;32.47;;;16.83;;
52962;SDS011;38827;53.024;6.596;2023-02-11T09:36:00;26.05;;;15.35;;
52962;SDS011;38827;53.024;6.596;2023-02-11T10:29:37;21.10;;;11.32;;
52962;SDS011;38827;53.024;6.596;2023-02-11T10:42:33;26.27;;;10.90;;
52962;SDS011;38827;53.024;6.596;2023-02-11T10:45:04;23.42;;;11.50;;
52962;SDS011;38827;53.024;6.596;2023-02-11T10:47:51;21.13;;;10.77;;
52962;SDS011;38827;53.024;6.596;2023-02-11T10:53:37;23.17;;;10.77;;
52962;SDS011;38827;53.024;6.596;2023-02-11T10:56:57;21.88;;;10.48;;
52962;SDS011;38827;53.024;6.596;2023-02-11T11:14:17;20.38;;;8.30;;
52962;SDS011;38827;53.024;6.596;2023-02-11T11:17:37;18.58;;;8.02;;
52962;SDS011;38827;53.024;6.596;2023-02-11T11:20:29;18.20;;;7.83;;
52962;SDS011;38827;53.024;6.596;2023-02-11T11:32:51;14.10;;;7.45;;
52962;SDS011;38827;53.024;6.596;2023-02-11T11:46:09;18.95;;;6.22;;
52962;SDS011;38827;53.024;6.596;2023-02-11T11:48:41;12.90;;;6.10;;
52962;SDS011;38827;53.024;6.596;2023-02-11T11:51:49;12.18;;;5.10;;
52962;SDS011;38827;53.024;6.596;2023-02-11T12:44:07;18.00;;;3.97;;
52962;SDS011;38827;53.024;6.596;2023-02-11T12:57:49;18.25;;;4.75;;
52962;SDS011;38827;53.024;6.596;2023-02-11T13:28:50;10.88;;;2.85;;
52962;SDS011;38827;53.024;6.596;2023-02-11T13:32:12;14.93;;;3.00;;
52962;SDS011;38827;53.024;6.596;2023-02-11T13:34:58;17.67;;;3.40;;
52962;SDS011;38827;53.024;6.596;2023-02-11T13:37:53;12.35;;;3.00;;
52962;SDS011;38827;53.024;6.596;2023-02-11T13:40:21;14.20;;;2.90;;
52962;SDS011;38827;53.024;6.596;2023-02-11T13:42:55;16.30;;;3.13;;
52962;SDS011;38827;53.024;6.596;2023-02-11T13:45:30;15.45;;;3.03;;
52962;SDS011;38827;53.024;6.596;2023-02-11T13:50:51;14.68;;;3.17;;
52962;SDS011;38827;53.024;6.596;2023-02-11T13:53:20;23.40;;;5.68;;
52962;SDS011;38827;53.024;6.596;2023-02-11T13:55:47;15.02;;;3.40;;
52962;SDS011;38827;53.024;6.596;2023-02-11T14:05:29;21.13;;;4.20;;
52962;SDS011;38827;53.024;6.596;2023-02-11T14:15:19;13.85;;;3.00;;
52962;SDS011;38827;53.024;6.596;2023-02-11T14:38:41;9.48;;;2.58;;
52962;SDS011;38827;53.024;6.596;2023-02-11T15:05:33;15.77;;;3.15;;
52962;SDS011;38827;53.024;6.596;2023-02-11T15:15:17;15.45;;;3.08;;
52962;SDS011;38827;53.024;6.596;2023-02-11T15:17:56;13.13;;;2.70;;
52962;SDS011;38827;53.024;6.596;2023-02-11T15:21:09;16.00;;;3.85;;
52962;SDS011;38827;53.024;6.596;2023-02-11T15:30:55;18.30;;;3.00;;
52962;SDS011;38827;53.024;6.596;2023-02-11T15:34:22;14.40;;;3.15;;
52962;SDS011;38827;53.024;6.596;2023-02-11T15:46:07;14.13;;;2.65;;
52962;SDS011;38827;53.024;6.596;2023-02-11T15:54:31;13.10;;;2.67;;
52962;SDS011;38827;53.024;6.596;2023-02-11T16:00:48;16.95;;;3.28;;
52962;SDS011;38827;53.024;6.596;2023-02-11T16:06:25;15.02;;;2.90;;
52962;SDS011;38827;53.024;6.596;2023-02-11T16:12:31;15.68;;;2.78;;
52962;SDS011;38827;53.024;6.596;2023-02-11T16:14:57;16.08;;;4.10;;
52962;SDS011;38827;53.024;6.596;2023-02-11T16:22:43;17.25;;;3.67;;
52962;SDS011;38827;53.024;6.596;2023-02-11T16:25:17;14.02;;;3.20;;
52962;SDS011;38827;53.024;6.596;2023-02-11T16:27:52;13.30;;;3.30;;
52962;SDS011;38827;53.024;6.596;2023-02-11T16:33:03;16.90;;;4.13;;
52962;SDS011;38827;53.024;6.596;2023-02-11T16:35:41;14.02;;;3.00;;
52962;SDS011;38827;53.024;6.596;2023-02-11T16:38:11;16.83;;;3.58;;
52962;SDS011;38827;53.024;6.596;2023-02-11T16:40:49;16.23;;;3.67;;
52962;SDS011;38827;53.024;6.596;2023-02-11T16:43:18;13.25;;;2.95;;
52962;SDS011;38827;53.024;6.596;2023-02-11T16:45:47;15.68;;;3.78;;
52962;SDS011;38827;53.024;6.596;2023-02-11T16:51:19;18.73;;;3.38;;
52962;SDS011;38827;53.024;6.596;2023-02-11T16:53:45;20.40;;;3.97;;
52962;SDS011;38827;53.024;6.596;2023-02-11T16:56:13;14.38;;;3.47;;
52962;SDS011;38827;53.024;6.596;2023-02-11T16:58:40;14.80;;;3.50;;
52962;SDS011;38827;53.024;6.596;2023-02-11T17:01:06;16.05;;;3.88;;
52962;SDS011;38827;53.024;6.596;2023-02-11T17:03:32;15.82;;;3.85;;
52962;SDS011;38827;53.024;6.596;2023-02-11T17:06:04;16.15;;;3.67;;
52962;SDS011;38827;53.024;6.596;2023-02-11T17:08:33;17.80;;;4.15;;
52962;SDS011;38827;53.024;6.596;2023-02-11T17:11:00;20.50;;;4.15;;
52962;SDS011;38827;53.024;6.596;2023-02-11T17:13:35;14.05;;;3.08;;
52962;SDS011;38827;53.024;6.596;2023-02-11T17:16:03;19.60;;;4.30;;
52962;SDS011;38827;53.024;6.596;2023-02-11T17:18:29;15.95;;;4.03;;
52962;SDS011;38827;53.024;6.596;2023-02-11T17:20:54;14.50;;;3.90;;
52962;SDS011;38827;53.024;6.596;2023-02-11T17:23:24;13.48;;;3.67;;
52962;SDS011;38827;53.024;6.596;2023-02-11T17:25:55;16.40;;;3.92;;
52962;SDS011;38827;53.024;6.596;2023-02-11T17:28:21;11.75;;;3.42;;
52962;SDS011;38827;53.024;6.596;2023-02-11T17:30:47;15.52;;;3.22;;
52962;SDS011;38827;53.024;6.596;2023-02-11T17:33:12;13.55;;;3.40;;
52962;SDS011;38827;53.024;6.596;2023-02-11T17:35:38;11.70;;;3.20;;
52962;SDS011;38827;53.024;6.596;2023-02-11T17:38:04;16.63;;;3.92;;
52962;SDS011;38827;53.024;6.596;2023-02-11T17:40:30;14.52;;;3.97;;
52962;SDS011;38827;53.024;6.596;2023-02-11T17:42:56;11.10;;;3.03;;
52962;SDS011;38827;53.024;6.596;2023-02-11T17:45:22;17.38;;;3.53;;
52962;SDS011;38827;53.024;6.596;2023-02-11T17:47:48;15.10;;;3.15;;
52962;SDS011;38827;53.024;6.596;2023-02-11T17:50:16;15.77;;;3.65;;
52962;SDS011;38827;53.024;6.596;2023-02-11T17:52:42;17.80;;;4.03;;
52962;SDS011;38827;53.024;6.596;2023-02-11T17:55:07;12.43;;;3.15;;
52962;SDS011;38827;53.024;6.596;2023-02-11T17:57:37;10.38;;;2.97;;
52962;SDS011;38827;53.024;6.596;2023-02-11T18:00:04;16.42;;;3.53;;
52962;SDS011;38827;53.024;6.596;2023-02-11T18:02:36;19.33;;;3.88;;
52962;SDS011;38827;53.024;6.596;2023-02-11T18:05:01;18.05;;;3.35;;
52962;SDS011;38827;53.024;6.596;2023-02-11T18:07:28;20.93;;;3.80;;
52962;SDS011;38827;53.024;6.596;2023-02-11T18:09:54;16.83;;;3.10;;
52962;SDS011;38827;53.024;6.596;2023-02-11T18:12:19;19.02;;;4.03;;
52962;SDS011;38827;53.024;6.596;2023-02-11T18:14:50;14.48;;;3.22;;
52962;SDS011;38827;53.024;6.596;2023-02-11T18:17:18;12.73;;;3.10;;
52962;SDS011;38827;53.024;6.596;2023-02-11T18:22:10;16.47;;;3.93;;
52962;SDS011;38827;53.024;6.596;2023-02-11T18:24:36;14.98;;;3.50;;
52962;SDS011;38827;53.024;6.596;2023-02-11T18:27:02;14.85;;;3.45;;
52962;SDS011;38827;53.024;6.596;2023-02-11T18:29:27;14.88;;;3.00;;
52962;SDS011;38827;53.024;6.596;2023-02-11T18:31:56;15.68;;;4.18;;
52962;SDS011;38827;53.024;6.596;2023-02-11T18:34:22;21.08;;;3.90;;
52962;SDS011;38827;53.024;6.596;2023-02-11T18:36:49;15.95;;;3.42;;
52962;SDS011;38827;53.024;6.596;2023-02-11T18:39:15;21.17;;;4.67;;
52962;SDS011;38827;53.024;6.596;2023-02-11T18:44:09;19.13;;;3.70;;
52962;SDS011;38827;53.024;6.596;2023-02-11T18:46:35;15.70;;;4.35;;
52962;SDS011;38827;53.024;6.596;2023-02-11T18:49:01;25.05;;;4.65;;
52962;SDS011;38827;53.024;6.596;2023-02-11T18:51:27;16.13;;;3.75;;
52962;SDS011;38827;53.024;6.596;2023-02-11T18:53:55;20.83;;;4.40;;
52962;SDS011;38827;53.024;6.596;2023-02-11T18:56:21;15.82;;;4.78;;
52962;SDS011;38827;53.024;6.596;2023-02-11T18:58:48;14.93;;;4.43;;
52962;SDS011;38827;53.024;6.596;2023-02-11T19:01:19;18.25;;;4.45;;
52962;SDS011;38827;53.024;6.596;2023-02-11T19:03:48;21.83;;;4.68;;
52962;SDS011;38827;53.024;6.596;2023-02-11T19:06:15;21.88;;;4.28;;
52962;SDS011;38827;53.024;6.596;2023-02-11T19:08:44;14.05;;;3.90;;
52962;SDS011;38827;53.024;6.596;2023-02-11T19:11:10;16.52;;;4.30;;
52962;SDS011;38827;53.024;6.596;2023-02-11T19:13:36;17.63;;;4.88;;
52962;SDS011;38827;53.024;6.596;2023-02-11T19:16:06;19.13;;;4.70;;
52962;SDS011;38827;53.024;6.596;2023-02-11T19:18:32;19.70;;;4.80;;
52962;SDS011;38827;53.024;6.596;2023-02-11T19:21:05;15.23;;;4.80;;
52962;SDS011;38827;53.024;6.596;2023-02-11T19:23:35;20.50;;;4.75;;
52962;SDS011;38827;53.024;6.596;2023-02-11T19:26:02;13.10;;;4.68;;
52962;SDS011;38827;53.024;6.596;2023-02-11T19:28:29;14.20;;;4.25;;
52962;SDS011;38827;53.024;6.596;2023-02-11T19:31:03;20.42;;;4.50;;
52962;SDS011;38827;53.024;6.596;2023-02-11T19:33:30;14.68;;;4.20;;
52962;SDS011;38827;53.024;6.596;2023-02-11T19:36:02;13.35;;;3.85;;
52962;SDS011;38827;53.024;6.596;2023-02-11T19:38:31;16.13;;;4.13;;
52962;SDS011;38827;53.024;6.596;2023-02-11T19:47:33;19.40;;;5.28;;
52962;SDS011;38827;53.024;6.596;2023-02-11T19:49:59;27.33;;;4.88;;
52962;SDS011;38827;53.024;6.596;2023-02-11T19:52:36;19.70;;;4.30;;
52962;SDS011;38827;53.024;6.596;2023-02-11T19:55:40;16.85;;;4.90;;
52962;SDS011;38827;53.024;6.596;2023-02-11T20:08:35;24.90;;;5.35;;
52962;SDS011;38827;53.024;6.596;2023-02-11T20:18:54;22.48;;;5.20;;
52962;SDS011;38827;53.024;6.596;2023-02-11T20:24:26;23.42;;;5.65;;
52962;SDS011;38827;53.024;6.596;2023-02-11T20:26:54;19.00;;;5.85;;
52962;SDS011;38827;53.024;6.596;2023-02-11T20:53:42;21.60;;;7.35;;
52962;SDS011;38827;53.024;6.596;2023-02-11T20:59:49;22.08;;;9.68;;
52962;SDS011;38827;53.024;6.596;2023-02-11T21:08:25;15.63;;;6.50;;
52962;SDS011;38827;53.024;6.596;2023-02-11T21:11:10;17.85;;;8.20;;
52962;SDS011;38827;53.024;6.596;2023-02-11T21:13:36;29.95;;;9.45;;
52962;SDS011;38827;53.024;6.596;2023-02-11T21:16:16;23.83;;;8.93;;
52962;SDS011;38827;53.024;6.596;2023-02-11T21:19:07;22.40;;;9.63;;
52962;SDS011;38827;53.024;6.596;2023-02-11T21:21:51;23.90;;;9.18;;
52962;SDS011;38827;53.024;6.596;2023-02-11T21:24:17;23.95;;;10.70;;
52962;SDS011;38827;53.024;6.596;2023-02-11T21:26:57;23.77;;;9.27;;
52962;SDS011;38827;53.024;6.596;2023-02-11T21:29:23;22.08;;;9.13;;
52962;SDS011;38827;53.024;6.596;2023-02-11T21:31:49;19.98;;;8.95;;
52962;SDS011;38827;53.024;6.596;2023-02-11T21:34:15;21.38;;;9.65;;
52962;SDS011;38827;53.024;6.596;2023-02-11T21:36:56;26.27;;;9.13;;
52962;SDS011;38827;53.024;6.596;2023-02-11T21:39:38;20.20;;;7.85;;
52962;SDS011;38827;53.024;6.596;2023-02-11T21:42:04;20.42;;;8.75;;
52962;SDS011;38827;53.024;6.596;2023-02-11T21:44:38;15.73;;;7.70;;
52962;SDS011;38827;53.024;6.596;2023-02-11T21:49:57;24.05;;;8.23;;
52962;SDS011;38827;53.024;6.596;2023-02-11T21:52:28;19.20;;;8.35;;
52962;SDS011;38827;53.024;6.596;2023-02-11T21:55:15;19.05;;;8.52;;
52962;SDS011;38827;53.024;6.596;2023-02-11T21:57:52;17.63;;;7.47;;
52962;SDS011;38827;53.024;6.596;2023-02-11T22:00:28;25.27;;;8.73;;
52962;SDS011;38827;53.024;6.596;2023-02-11T22:02:57;21.05;;;8.45;;
52962;SDS011;38827;53.024;6.596;2023-02-11T22:05:24;19.17;;;8.35;;
52962;SDS011;38827;53.024;6.596;2023-02-11T22:07:49;21.35;;;9.07;;
52962;SDS011;38827;53.024;6.596;2023-02-11T22:10:17;21.05;;;9.48;;
52962;SDS011;38827;53.024;6.596;2023-02-11T22:12:43;23.30;;;9.30;;
52962;SDS011;38827;53.024;6.596;2023-02-11T22:15:12;22.90;;;9.38;;
52962;SDS011;38827;53.024;6.596;2023-02-11T22:17:40;24.08;;;9.40;;
52962;SDS011;38827;53.024;6.596;2023-02-11T22:20:06;27.23;;;11.35;;
52962;SDS011;38827;53.024;6.596;2023-02-11T22:22:34;23.33;;;9.38;;
52962;SDS011;38827;53.024;6.596;2023-02-11T22:24:59;23.58;;;9.57;;
52962;SDS011;38827;53.024;6.596;2023-02-11T22:27:26;26.27;;;9.80;;
52962;SDS011;38827;53.024;6.596;2023-02-11T22:29:51;21.42;;;8.60;;
52962;SDS011;38827;53.024;6.596;2023-02-11T22:32:17;21.73;;;9.00;;
52962;SDS011;38827;53.024;6.596;2023-02-11T22:34:43;19.90;;;7.93;;
52962;SDS011;38827;53.024;6.596;2023-02-11T22:37:08;20.65;;;8.25;;
52962;SDS011;38827;53.024;6.596;2023-02-11T22:39:35;27.77;;;10.00;;
52962;SDS011;38827;53.024;6.596;2023-02-11T22:42:00;18.38;;;8.40;;
52962;SDS011;38827;53.024;6.596;2023-02-11T22:44:26;20.25;;;9.90;;
52962;SDS011;38827;53.024;6.596;2023-02-11T22:46:54;20.67;;;9.65;;
52962;SDS011;38827;53.024;6.596;2023-02-11T22:49:20;21.88;;;9.20;;
52962;SDS011;38827;53.024;6.596;2023-02-11T22:51:54;23.23;;;9.02;;
52962;SDS011;38827;53.024;6.596;2023-02-11T22:54:19;20.50;;;9.10;;
52962;SDS011;38827;53.024;6.596;2023-02-11T22:56:48;23.25;;;9.20;;
52962;SDS011;38827;53.024;6.596;2023-02-11T22:59:15;24.33;;;9.35;;
52962;SDS011;38827;53.024;6.596;2023-02-11T23:01:58;21.50;;;9.27;;
52962;SDS011;38827;53.024;6.596;2023-02-11T23:04:34;20.33;;;9.55;;
52962;SDS011;38827;53.024;6.596;2023-02-11T23:10:15;22.42;;;9.88;;
52962;SDS011;38827;53.024;6.596;2023-02-11T23:16:34;26.08;;;10.20;;
52962;SDS011;38827;53.024;6.596;2023-02-11T23:24:48;22.75;;;10.30;;
52962;SDS011;38827;53.024;6.596;2023-02-11T23:27:14;21.13;;;9.98;;
52962;SDS011;38827;53.024;6.596;2023-02-11T23:29:54;23.52;;;9.95;;
52962;SDS011;38827;53.024;6.596;2023-02-11T23:38:42;27.40;;;10.77;;
52962;SDS011;38827;53.024;6.596;2023-02-11T23:41:20;26.13;;;11.20;;
52962;SDS011;38827;53.024;6.596;2023-02-11T23:43:54;27.65;;;11.13;;
52962;SDS011;38827;53.024;6.596;2023-02-11T23:47:36;25.10;;;11.60;;
